sensor_id;sensor_type;location;lat;lon;timestamp;P1;durP1;ratioP1;P2;durP2;ratioP2
20870;SDS011;10595;51.218;3.452;2022-10-04T00:00:56;30.67;;;18.17;;
20870;SDS011;10595;51.218;3.452;2022-10-04T00:03:25;26.70;;;17.80;;
20870;SDS011;10595;51.218;3.452;2022-10-04T00:05:54;31.93;;;19.00;;
20870;SDS011;10595;51.218;3.452;2022-10-04T00:10:46;27.87;;;19.67;;
20870;SDS011;10595;51.218;3.452;2022-10-04T00:13:17;32.67;;;17.93;;
20870;SDS011;10595;51.218;3.452;2022-10-04T00:15:45;29.40;;;18.13;;
20870;SDS011;10595;51.218;3.452;2022-10-04T00:18:27;48.37;;;22.73;;
20870;SDS011;10595;51.218;3.452;2022-10-04T00:20:55;37.00;;;20.37;;
20870;SDS011;10595;51.218;3.452;2022-10-04T00:25:47;27.70;;;17.93;;
20870;SDS011;10595;51.218;3.452;2022-10-04T00:36:00;22.63;;;14.83;;
20870;SDS011;10595;51.218;3.452;2022-10-04T00:38:26;27.43;;;17.30;;
20870;SDS011;10595;51.218;3.452;2022-10-04T00:40:59;30.83;;;19.80;;
20870;SDS011;10595;51.218;3.452;2022-10-04T00:43:36;29.27;;;19.13;;
20870;SDS011;10595;51.218;3.452;2022-10-04T00:46:09;29.07;;;18.77;;
20870;SDS011;10595;51.218;3.452;2022-10-04T00:51:04;30.83;;;18.17;;
20870;SDS011;10595;51.218;3.452;2022-10-04T00:53:38;34.97;;;20.63;;
20870;SDS011;10595;51.218;3.452;2022-10-04T00:56:06;30.80;;;18.40;;
20870;SDS011;10595;51.218;3.452;2022-10-04T00:59:07;31.53;;;19.10;;
20870;SDS011;10595;51.218;3.452;2022-10-04T01:01:26;32.17;;;19.43;;
20870;SDS011;10595;51.218;3.452;2022-10-04T01:03:54;38.37;;;19.97;;
20870;SDS011;10595;51.218;3.452;2022-10-04T01:06:21;30.63;;;18.20;;
20870;SDS011;10595;51.218;3.452;2022-10-04T01:08:48;27.80;;;17.93;;
20870;SDS011;10595;51.218;3.452;2022-10-04T01:11:15;33.47;;;18.47;;
20870;SDS011;10595;51.218;3.452;2022-10-04T01:13:45;32.20;;;18.97;;
20870;SDS011;10595;51.218;3.452;2022-10-04T01:16:21;30.13;;;18.03;;
20870;SDS011;10595;51.218;3.452;2022-10-04T01:18:49;32.70;;;18.70;;
20870;SDS011;10595;51.218;3.452;2022-10-04T01:29:00;30.70;;;18.13;;
20870;SDS011;10595;51.218;3.452;2022-10-04T01:31:30;29.77;;;16.90;;
20870;SDS011;10595;51.218;3.452;2022-10-04T01:33:56;32.17;;;17.83;;
20870;SDS011;10595;51.218;3.452;2022-10-04T01:36:24;28.73;;;17.53;;
20870;SDS011;10595;51.218;3.452;2022-10-04T01:38:51;27.60;;;16.27;;
20870;SDS011;10595;51.218;3.452;2022-10-04T01:41:19;25.57;;;16.07;;
20870;SDS011;10595;51.218;3.452;2022-10-04T01:43:47;32.00;;;16.70;;
20870;SDS011;10595;51.218;3.452;2022-10-04T01:46:27;27.47;;;16.03;;
20870;SDS011;10595;51.218;3.452;2022-10-04T01:48:55;25.80;;;16.50;;
20870;SDS011;10595;51.218;3.452;2022-10-04T01:51:23;27.83;;;16.33;;
20870;SDS011;10595;51.218;3.452;2022-10-04T01:54:01;32.47;;;18.17;;
20870;SDS011;10595;51.218;3.452;2022-10-04T01:56:31;25.63;;;15.90;;
20870;SDS011;10595;51.218;3.452;2022-10-04T02:06:21;31.57;;;17.30;;
20870;SDS011;10595;51.218;3.452;2022-10-04T02:08:48;27.77;;;16.50;;
20870;SDS011;10595;51.218;3.452;2022-10-04T02:11:16;27.13;;;16.23;;
20870;SDS011;10595;51.218;3.452;2022-10-04T02:13:44;30.70;;;16.33;;
20870;SDS011;10595;51.218;3.452;2022-10-04T02:16:12;29.10;;;17.73;;
20870;SDS011;10595;51.218;3.452;2022-10-04T02:18:38;31.40;;;17.93;;
20870;SDS011;10595;51.218;3.452;2022-10-04T02:21:05;31.97;;;17.40;;
20870;SDS011;10595;51.218;3.452;2022-10-04T02:23:32;28.10;;;17.30;;
20870;SDS011;10595;51.218;3.452;2022-10-04T02:25:58;32.17;;;16.97;;
20870;SDS011;10595;51.218;3.452;2022-10-04T02:28:28;31.90;;;17.47;;
20870;SDS011;10595;51.218;3.452;2022-10-04T02:30:56;32.33;;;16.83;;
20870;SDS011;10595;51.218;3.452;2022-10-04T02:33:43;29.60;;;16.30;;
20870;SDS011;10595;51.218;3.452;2022-10-04T02:36:10;28.50;;;16.93;;
20870;SDS011;10595;51.218;3.452;2022-10-04T02:38:49;27.90;;;15.87;;
20870;SDS011;10595;51.218;3.452;2022-10-04T02:41:22;32.57;;;17.40;;
20870;SDS011;10595;51.218;3.452;2022-10-04T02:43:52;29.70;;;16.80;;
20870;SDS011;10595;51.218;3.452;2022-10-04T02:46:22;33.17;;;16.80;;
20870;SDS011;10595;51.218;3.452;2022-10-04T02:49:51;31.17;;;17.53;;
20870;SDS011;10595;51.218;3.452;2022-10-04T02:51:47;34.43;;;16.87;;
20870;SDS011;10595;51.218;3.452;2022-10-04T02:56:41;28.70;;;16.77;;
20870;SDS011;10595;51.218;3.452;2022-10-04T02:59:10;31.20;;;16.53;;
20870;SDS011;10595;51.218;3.452;2022-10-04T03:02:18;28.40;;;16.20;;
20870;SDS011;10595;51.218;3.452;2022-10-04T03:04:31;26.83;;;16.20;;
20870;SDS011;10595;51.218;3.452;2022-10-04T03:07:01;29.73;;;16.87;;
20870;SDS011;10595;51.218;3.452;2022-10-04T03:09:29;29.50;;;16.80;;
20870;SDS011;10595;51.218;3.452;2022-10-04T03:11:55;26.80;;;16.03;;
20870;SDS011;10595;51.218;3.452;2022-10-04T03:14:22;27.63;;;16.10;;
20870;SDS011;10595;51.218;3.452;2022-10-04T03:16:50;27.60;;;16.07;;
20870;SDS011;10595;51.218;3.452;2022-10-04T03:19:18;33.00;;;16.47;;
20870;SDS011;10595;51.218;3.452;2022-10-04T03:21:44;31.60;;;17.87;;
20870;SDS011;10595;51.218;3.452;2022-10-04T03:24:18;30.07;;;15.60;;
20870;SDS011;10595;51.218;3.452;2022-10-04T03:26:47;30.07;;;16.40;;
20870;SDS011;10595;51.218;3.452;2022-10-04T03:29:13;30.13;;;16.73;;
20870;SDS011;10595;51.218;3.452;2022-10-04T03:31:42;31.43;;;17.97;;
20870;SDS011;10595;51.218;3.452;2022-10-04T03:34:15;35.50;;;18.97;;
20870;SDS011;10595;51.218;3.452;2022-10-04T03:36:42;32.37;;;18.33;;
20870;SDS011;10595;51.218;3.452;2022-10-04T03:39:09;34.27;;;19.07;;
20870;SDS011;10595;51.218;3.452;2022-10-04T03:41:39;32.13;;;16.93;;
20870;SDS011;10595;51.218;3.452;2022-10-04T03:44:06;37.30;;;19.13;;
20870;SDS011;10595;51.218;3.452;2022-10-04T03:46:33;35.37;;;19.30;;
20870;SDS011;10595;51.218;3.452;2022-10-04T03:49:00;35.70;;;19.97;;
20870;SDS011;10595;51.218;3.452;2022-10-04T03:51:26;40.03;;;19.30;;
20870;SDS011;10595;51.218;3.452;2022-10-04T03:53:53;33.43;;;19.43;;
20870;SDS011;10595;51.218;3.452;2022-10-04T03:56:23;31.90;;;18.60;;
20870;SDS011;10595;51.218;3.452;2022-10-04T03:58:50;34.53;;;18.00;;
20870;SDS011;10595;51.218;3.452;2022-10-04T04:01:25;42.10;;;21.37;;
20870;SDS011;10595;51.218;3.452;2022-10-04T04:06:21;35.20;;;18.93;;
20870;SDS011;10595;51.218;3.452;2022-10-04T04:08:48;27.80;;;17.70;;
20870;SDS011;10595;51.218;3.452;2022-10-04T04:11:23;39.23;;;19.07;;
20870;SDS011;10595;51.218;3.452;2022-10-04T04:13:55;31.97;;;19.40;;
20870;SDS011;10595;51.218;3.452;2022-10-04T04:16:23;29.73;;;17.93;;
20870;SDS011;10595;51.218;3.452;2022-10-04T04:18:53;30.03;;;16.57;;
20870;SDS011;10595;51.218;3.452;2022-10-04T04:21:20;32.47;;;17.40;;
20870;SDS011;10595;51.218;3.452;2022-10-04T04:23:52;26.37;;;17.03;;
20870;SDS011;10595;51.218;3.452;2022-10-04T04:26:22;30.27;;;17.47;;
20870;SDS011;10595;51.218;3.452;2022-10-04T04:28:50;27.50;;;17.43;;
20870;SDS011;10595;51.218;3.452;2022-10-04T04:31:25;34.70;;;17.77;;
20870;SDS011;10595;51.218;3.452;2022-10-04T04:33:57;29.30;;;17.37;;
20870;SDS011;10595;51.218;3.452;2022-10-04T04:36:24;27.87;;;17.67;;
20870;SDS011;10595;51.218;3.452;2022-10-04T04:38:50;27.60;;;17.47;;
20870;SDS011;10595;51.218;3.452;2022-10-04T04:41:35;31.20;;;17.30;;
20870;SDS011;10595;51.218;3.452;2022-10-04T04:44:02;34.67;;;17.17;;
20870;SDS011;10595;51.218;3.452;2022-10-04T04:46:29;31.50;;;18.27;;
20870;SDS011;10595;51.218;3.452;2022-10-04T04:49:01;26.97;;;16.73;;
20870;SDS011;10595;51.218;3.452;2022-10-04T04:51:28;33.20;;;19.17;;
20870;SDS011;10595;51.218;3.452;2022-10-04T04:53:55;33.90;;;17.90;;
20870;SDS011;10595;51.218;3.452;2022-10-04T04:56:22;32.73;;;18.47;;
20870;SDS011;10595;51.218;3.452;2022-10-04T04:58:50;30.53;;;17.53;;
20870;SDS011;10595;51.218;3.452;2022-10-04T05:01:27;33.57;;;17.93;;
20870;SDS011;10595;51.218;3.452;2022-10-04T05:06:27;35.50;;;19.30;;
20870;SDS011;10595;51.218;3.452;2022-10-04T05:08:54;31.70;;;18.80;;
20870;SDS011;10595;51.218;3.452;2022-10-04T05:11:20;37.73;;;19.87;;
20870;SDS011;10595;51.218;3.452;2022-10-04T05:13:51;33.57;;;19.17;;
20870;SDS011;10595;51.218;3.452;2022-10-04T05:16:37;35.37;;;21.00;;
20870;SDS011;10595;51.218;3.452;2022-10-04T05:19:06;42.30;;;21.90;;
20870;SDS011;10595;51.218;3.452;2022-10-04T05:21:33;35.23;;;19.30;;
20870;SDS011;10595;51.218;3.452;2022-10-04T05:24:10;32.33;;;19.30;;
20870;SDS011;10595;51.218;3.452;2022-10-04T05:26:38;38.80;;;21.77;;
20870;SDS011;10595;51.218;3.452;2022-10-04T05:29:07;36.23;;;21.00;;
20870;SDS011;10595;51.218;3.452;2022-10-04T05:34:21;36.37;;;20.87;;
20870;SDS011;10595;51.218;3.452;2022-10-04T05:42:19;41.40;;;21.63;;
20870;SDS011;10595;51.218;3.452;2022-10-04T05:44:51;36.37;;;21.20;;
20870;SDS011;10595;51.218;3.452;2022-10-04T05:47:18;38.67;;;21.10;;
20870;SDS011;10595;51.218;3.452;2022-10-04T05:49:48;39.90;;;22.50;;
20870;SDS011;10595;51.218;3.452;2022-10-04T05:55:09;40.97;;;21.63;;
20870;SDS011;10595;51.218;3.452;2022-10-04T06:00:21;40.30;;;23.13;;
20870;SDS011;10595;51.218;3.452;2022-10-04T06:05:27;43.53;;;23.67;;
20870;SDS011;10595;51.218;3.452;2022-10-04T06:07:56;43.67;;;23.10;;
20870;SDS011;10595;51.218;3.452;2022-10-04T06:13:13;43.17;;;22.37;;
20870;SDS011;10595;51.218;3.452;2022-10-04T06:20:42;49.00;;;25.00;;
20870;SDS011;10595;51.218;3.452;2022-10-04T06:23:15;41.47;;;22.87;;
20870;SDS011;10595;51.218;3.452;2022-10-04T06:30:39;47.40;;;25.23;;
20870;SDS011;10595;51.218;3.452;2022-10-04T06:40:59;47.60;;;26.23;;
20870;SDS011;10595;51.218;3.452;2022-10-04T06:51:04;51.43;;;27.90;;
20870;SDS011;10595;51.218;3.452;2022-10-04T06:59:08;46.23;;;27.20;;
20870;SDS011;10595;51.218;3.452;2022-10-04T07:01:49;51.27;;;26.67;;
20870;SDS011;10595;51.218;3.452;2022-10-04T07:09:48;46.00;;;26.00;;
20870;SDS011;10595;51.218;3.452;2022-10-04T07:12:16;46.07;;;26.57;;
20870;SDS011;10595;51.218;3.452;2022-10-04T07:14:43;40.27;;;25.00;;
20870;SDS011;10595;51.218;3.452;2022-10-04T07:17:13;40.60;;;24.37;;
20870;SDS011;10595;51.218;3.452;2022-10-04T07:19:41;46.20;;;27.03;;
20870;SDS011;10595;51.218;3.452;2022-10-04T07:22:15;41.37;;;25.37;;
20870;SDS011;10595;51.218;3.452;2022-10-04T07:27:31;39.63;;;25.63;;
20870;SDS011;10595;51.218;3.452;2022-10-04T07:30:00;43.17;;;24.47;;
20870;SDS011;10595;51.218;3.452;2022-10-04T07:32:36;39.40;;;23.60;;
20870;SDS011;10595;51.218;3.452;2022-10-04T07:43:24;38.80;;;23.07;;
20870;SDS011;10595;51.218;3.452;2022-10-04T07:45:51;36.70;;;22.80;;
20870;SDS011;10595;51.218;3.452;2022-10-04T07:48:19;37.37;;;22.30;;
20870;SDS011;10595;51.218;3.452;2022-10-04T07:53:26;35.80;;;22.50;;
20870;SDS011;10595;51.218;3.452;2022-10-04T07:55:55;35.80;;;22.70;;
20870;SDS011;10595;51.218;3.452;2022-10-04T08:00:56;38.70;;;23.07;;
20870;SDS011;10595;51.218;3.452;2022-10-04T08:06:20;35.10;;;21.63;;
20870;SDS011;10595;51.218;3.452;2022-10-04T08:11:35;34.13;;;22.53;;
20870;SDS011;10595;51.218;3.452;2022-10-04T08:16:33;32.00;;;19.47;;
20870;SDS011;10595;51.218;3.452;2022-10-04T08:21:41;33.87;;;19.93;;
20870;SDS011;10595;51.218;3.452;2022-10-04T08:50:47;26.30;;;16.87;;
20870;SDS011;10595;51.218;3.452;2022-10-04T09:00:25;22.87;;;16.40;;
20870;SDS011;10595;51.218;3.452;2022-10-04T09:18:19;24.00;;;15.80;;
20870;SDS011;10595;51.218;3.452;2022-10-04T09:20:53;24.07;;;15.30;;
20870;SDS011;10595;51.218;3.452;2022-10-04T09:28:52;21.17;;;14.50;;
20870;SDS011;10595;51.218;3.452;2022-10-04T09:34:23;21.33;;;14.10;;
20870;SDS011;10595;51.218;3.452;2022-10-04T09:36:59;18.90;;;13.77;;
20870;SDS011;10595;51.218;3.452;2022-10-04T09:49:21;23.73;;;14.23;;
20870;SDS011;10595;51.218;3.452;2022-10-04T10:05:43;22.53;;;14.03;;
20870;SDS011;10595;51.218;3.452;2022-10-04T10:16:30;18.83;;;12.57;;
20870;SDS011;10595;51.218;3.452;2022-10-04T10:24:30;19.27;;;13.60;;
20870;SDS011;10595;51.218;3.452;2022-10-04T10:27:17;17.73;;;14.03;;
20870;SDS011;10595;51.218;3.452;2022-10-04T10:32:18;18.17;;;13.83;;
20870;SDS011;10595;51.218;3.452;2022-10-04T10:40:15;18.10;;;13.47;;
20870;SDS011;10595;51.218;3.452;2022-10-04T11:05:49;15.10;;;11.57;;
20870;SDS011;10595;51.218;3.452;2022-10-04T11:20:54;17.73;;;10.50;;
20870;SDS011;10595;51.218;3.452;2022-10-04T11:39:39;16.03;;;10.83;;
20870;SDS011;10595;51.218;3.452;2022-10-04T11:49:52;14.17;;;9.50;;
20870;SDS011;10595;51.218;3.452;2022-10-04T12:00:22;13.83;;;9.30;;
20870;SDS011;10595;51.218;3.452;2022-10-04T12:10:33;16.53;;;11.37;;
20870;SDS011;10595;51.218;3.452;2022-10-04T12:23:42;11.80;;;9.73;;
20870;SDS011;10595;51.218;3.452;2022-10-04T12:31:29;12.03;;;8.50;;
20870;SDS011;10595;51.218;3.452;2022-10-04T12:50:14;8.47;;;7.10;;
20870;SDS011;10595;51.218;3.452;2022-10-04T12:52:51;9.20;;;7.47;;
20870;SDS011;10595;51.218;3.452;2022-10-04T12:58:02;11.17;;;7.00;;
20870;SDS011;10595;51.218;3.452;2022-10-04T13:00:32;11.30;;;6.30;;
20870;SDS011;10595;51.218;3.452;2022-10-04T13:03:05;7.57;;;6.00;;
20870;SDS011;10595;51.218;3.452;2022-10-04T13:11:04;9.07;;;6.10;;
20870;SDS011;10595;51.218;3.452;2022-10-04T13:18:56;7.97;;;5.90;;
20870;SDS011;10595;51.218;3.452;2022-10-04T13:24:33;7.83;;;6.10;;
20870;SDS011;10595;51.218;3.452;2022-10-04T13:27:05;10.57;;;6.33;;
20870;SDS011;10595;51.218;3.452;2022-10-04T13:29:51;7.93;;;6.20;;
20870;SDS011;10595;51.218;3.452;2022-10-04T13:32:26;9.53;;;6.13;;
20870;SDS011;10595;51.218;3.452;2022-10-04T13:42:21;7.83;;;5.60;;
20870;SDS011;10595;51.218;3.452;2022-10-04T13:52:54;7.77;;;5.37;;
20870;SDS011;10595;51.218;3.452;2022-10-04T14:12:29;7.13;;;4.93;;
20870;SDS011;10595;51.218;3.452;2022-10-04T14:38:45;8.83;;;4.53;;
20870;SDS011;10595;51.218;3.452;2022-10-04T15:09:48;7.50;;;4.97;;
20870;SDS011;10595;51.218;3.452;2022-10-04T15:22:48;7.47;;;5.33;;
20870;SDS011;10595;51.218;3.452;2022-10-04T15:28:03;8.97;;;6.00;;
20870;SDS011;10595;51.218;3.452;2022-10-04T15:30:37;8.80;;;5.67;;
20870;SDS011;10595;51.218;3.452;2022-10-04T15:43:41;8.57;;;5.90;;
20870;SDS011;10595;51.218;3.452;2022-10-04T16:01:52;8.93;;;6.47;;
20870;SDS011;10595;51.218;3.452;2022-10-04T16:07:39;9.17;;;6.97;;
20870;SDS011;10595;51.218;3.452;2022-10-04T16:09:46;11.77;;;7.17;;
20870;SDS011;10595;51.218;3.452;2022-10-04T16:25:35;9.90;;;6.20;;
20870;SDS011;10595;51.218;3.452;2022-10-04T16:30:34;11.07;;;6.50;;
20870;SDS011;10595;51.218;3.452;2022-10-04T16:36:01;10.17;;;6.43;;
20870;SDS011;10595;51.218;3.452;2022-10-04T16:38:28;13.60;;;7.30;;
20870;SDS011;10595;51.218;3.452;2022-10-04T16:41:09;11.40;;;7.53;;
20870;SDS011;10595;51.218;3.452;2022-10-04T16:43:46;10.77;;;7.67;;
20870;SDS011;10595;51.218;3.452;2022-10-04T16:48:53;10.53;;;7.70;;
20870;SDS011;10595;51.218;3.452;2022-10-04T16:53:57;9.73;;;7.27;;
20870;SDS011;10595;51.218;3.452;2022-10-04T16:57:13;12.40;;;7.90;;
20870;SDS011;10595;51.218;3.452;2022-10-04T17:10:27;12.70;;;8.70;;
20870;SDS011;10595;51.218;3.452;2022-10-04T17:18:27;12.63;;;8.43;;
20870;SDS011;10595;51.218;3.452;2022-10-04T17:28:29;11.37;;;7.77;;
20870;SDS011;10595;51.218;3.452;2022-10-04T17:33:43;14.33;;;7.23;;
20870;SDS011;10595;51.218;3.452;2022-10-04T17:41:11;11.10;;;6.10;;
20870;SDS011;10595;51.218;3.452;2022-10-04T17:51:59;6.83;;;3.90;;
20870;SDS011;10595;51.218;3.452;2022-10-04T17:54:45;6.13;;;3.80;;
20870;SDS011;10595;51.218;3.452;2022-10-04T18:00:06;5.23;;;4.40;;
20870;SDS011;10595;51.218;3.452;2022-10-04T18:05:14;5.67;;;3.13;;
20870;SDS011;10595;51.218;3.452;2022-10-04T18:07:47;3.93;;;3.07;;
20870;SDS011;10595;51.218;3.452;2022-10-04T18:10:21;2.80;;;2.60;;
20870;SDS011;10595;51.218;3.452;2022-10-04T18:12:55;5.03;;;2.60;;
20870;SDS011;10595;51.218;3.452;2022-10-04T18:15:42;3.93;;;2.63;;
20870;SDS011;10595;51.218;3.452;2022-10-04T18:18:14;4.33;;;2.90;;
20870;SDS011;10595;51.218;3.452;2022-10-04T18:23:29;4.53;;;2.90;;
20870;SDS011;10595;51.218;3.452;2022-10-04T18:26:05;4.10;;;2.60;;
20870;SDS011;10595;51.218;3.452;2022-10-04T18:28:34;5.53;;;2.90;;
20870;SDS011;10595;51.218;3.452;2022-10-04T18:31:12;2.90;;;2.70;;
20870;SDS011;10595;51.218;3.452;2022-10-04T18:33:47;4.00;;;2.90;;
20870;SDS011;10595;51.218;3.452;2022-10-04T18:36:20;3.93;;;2.83;;
20870;SDS011;10595;51.218;3.452;2022-10-04T18:41:36;3.77;;;3.00;;
20870;SDS011;10595;51.218;3.452;2022-10-04T18:44:18;3.63;;;3.30;;
20870;SDS011;10595;51.218;3.452;2022-10-04T18:46:45;5.10;;;3.13;;
20870;SDS011;10595;51.218;3.452;2022-10-04T18:51:48;5.27;;;3.87;;
20870;SDS011;10595;51.218;3.452;2022-10-04T18:59:20;5.30;;;3.70;;
20870;SDS011;10595;51.218;3.452;2022-10-04T19:02:11;5.40;;;3.93;;
20870;SDS011;10595;51.218;3.452;2022-10-04T19:04:54;4.20;;;3.70;;
20870;SDS011;10595;51.218;3.452;2022-10-04T19:07:36;7.07;;;4.00;;
20870;SDS011;10595;51.218;3.452;2022-10-04T19:10:15;6.20;;;3.70;;
20870;SDS011;10595;51.218;3.452;2022-10-04T19:15:20;6.43;;;4.00;;
20870;SDS011;10595;51.218;3.452;2022-10-04T19:20:27;6.77;;;4.13;;
20870;SDS011;10595;51.218;3.452;2022-10-04T19:31:18;7.60;;;4.40;;
20870;SDS011;10595;51.218;3.452;2022-10-04T19:33:18;7.03;;;4.70;;
20870;SDS011;10595;51.218;3.452;2022-10-04T19:44:10;7.63;;;4.43;;
20870;SDS011;10595;51.218;3.452;2022-10-04T19:46:42;7.40;;;4.40;;
20870;SDS011;10595;51.218;3.452;2022-10-04T19:49:19;7.33;;;4.47;;
20870;SDS011;10595;51.218;3.452;2022-10-04T19:51:50;7.37;;;4.70;;
20870;SDS011;10595;51.218;3.452;2022-10-04T19:54:20;5.63;;;4.80;;
20870;SDS011;10595;51.218;3.452;2022-10-04T19:56:49;10.17;;;5.57;;
20870;SDS011;10595;51.218;3.452;2022-10-04T19:59:21;5.97;;;5.00;;
20870;SDS011;10595;51.218;3.452;2022-10-04T20:01:49;8.10;;;4.60;;
20870;SDS011;10595;51.218;3.452;2022-10-04T20:04:16;5.80;;;4.90;;
20870;SDS011;10595;51.218;3.452;2022-10-04T20:07:02;6.87;;;4.93;;
20870;SDS011;10595;51.218;3.452;2022-10-04T20:09:30;7.43;;;4.73;;
20870;SDS011;10595;51.218;3.452;2022-10-04T20:11:57;8.27;;;4.80;;
20870;SDS011;10595;51.218;3.452;2022-10-04T20:17:00;8.37;;;4.80;;
20870;SDS011;10595;51.218;3.452;2022-10-04T20:22:51;9.10;;;4.83;;
20870;SDS011;10595;51.218;3.452;2022-10-04T20:28:35;6.60;;;4.60;;
20870;SDS011;10595;51.218;3.452;2022-10-04T20:30:13;6.40;;;4.43;;
20870;SDS011;10595;51.218;3.452;2022-10-04T20:35:09;5.23;;;4.03;;
20870;SDS011;10595;51.218;3.452;2022-10-04T20:43:36;7.37;;;4.30;;
20870;SDS011;10595;51.218;3.452;2022-10-04T20:45:36;7.20;;;4.33;;
20870;SDS011;10595;51.218;3.452;2022-10-04T20:48:10;7.80;;;3.70;;
20870;SDS011;10595;51.218;3.452;2022-10-04T20:50:38;6.10;;;3.67;;
20870;SDS011;10595;51.218;3.452;2022-10-04T20:53:16;6.93;;;3.70;;
20870;SDS011;10595;51.218;3.452;2022-10-04T20:55:43;6.83;;;3.17;;
20870;SDS011;10595;51.218;3.452;2022-10-04T21:00:52;5.27;;;2.80;;
20870;SDS011;10595;51.218;3.452;2022-10-04T21:03:18;5.27;;;3.67;;
20870;SDS011;10595;51.218;3.452;2022-10-04T21:05:57;6.90;;;3.40;;
20870;SDS011;10595;51.218;3.452;2022-10-04T21:08:24;5.83;;;3.47;;
20870;SDS011;10595;51.218;3.452;2022-10-04T21:13:37;6.77;;;3.80;;
20870;SDS011;10595;51.218;3.452;2022-10-04T21:16:05;6.97;;;3.70;;
20870;SDS011;10595;51.218;3.452;2022-10-04T21:18:31;5.80;;;3.53;;
20870;SDS011;10595;51.218;3.452;2022-10-04T21:20:57;8.93;;;3.83;;
20870;SDS011;10595;51.218;3.452;2022-10-04T21:23:31;5.07;;;3.93;;
20870;SDS011;10595;51.218;3.452;2022-10-04T21:28:42;8.00;;;4.07;;
20870;SDS011;10595;51.218;3.452;2022-10-04T21:31:08;5.87;;;3.70;;
20870;SDS011;10595;51.218;3.452;2022-10-04T21:33:34;6.77;;;4.03;;
20870;SDS011;10595;51.218;3.452;2022-10-04T21:36:00;5.23;;;3.73;;
20870;SDS011;10595;51.218;3.452;2022-10-04T21:38:27;6.90;;;4.07;;
20870;SDS011;10595;51.218;3.452;2022-10-04T21:40:53;7.03;;;3.90;;
20870;SDS011;10595;51.218;3.452;2022-10-04T21:43:20;8.07;;;4.03;;
20870;SDS011;10595;51.218;3.452;2022-10-04T21:45:46;7.40;;;3.93;;
20870;SDS011;10595;51.218;3.452;2022-10-04T21:48:12;5.10;;;3.83;;
20870;SDS011;10595;51.218;3.452;2022-10-04T21:50:38;6.50;;;3.50;;
20870;SDS011;10595;51.218;3.452;2022-10-04T21:53:04;7.37;;;3.93;;
20870;SDS011;10595;51.218;3.452;2022-10-04T21:55:30;7.03;;;3.40;;
20870;SDS011;10595;51.218;3.452;2022-10-04T21:57:56;7.00;;;3.50;;
20870;SDS011;10595;51.218;3.452;2022-10-04T22:00:23;4.37;;;3.17;;
20870;SDS011;10595;51.218;3.452;2022-10-04T22:02:49;7.03;;;3.13;;
20870;SDS011;10595;51.218;3.452;2022-10-04T22:05:15;5.57;;;3.47;;
20870;SDS011;10595;51.218;3.452;2022-10-04T22:07:41;7.13;;;3.13;;
20870;SDS011;10595;51.218;3.452;2022-10-04T22:10:07;7.70;;;3.20;;
20870;SDS011;10595;51.218;3.452;2022-10-04T22:12:34;4.57;;;3.30;;
20870;SDS011;10595;51.218;3.452;2022-10-04T22:15:00;5.73;;;3.67;;
20870;SDS011;10595;51.218;3.452;2022-10-04T22:17:26;4.53;;;3.60;;
20870;SDS011;10595;51.218;3.452;2022-10-04T22:19:52;5.00;;;3.10;;
20870;SDS011;10595;51.218;3.452;2022-10-04T22:22:18;4.70;;;3.30;;
20870;SDS011;10595;51.218;3.452;2022-10-04T22:24:44;5.70;;;3.70;;
20870;SDS011;10595;51.218;3.452;2022-10-04T22:27:12;4.53;;;3.53;;
20870;SDS011;10595;51.218;3.452;2022-10-04T22:29:38;4.10;;;3.40;;
20870;SDS011;10595;51.218;3.452;2022-10-04T22:32:07;6.17;;;3.93;;
20870;SDS011;10595;51.218;3.452;2022-10-04T22:34:35;4.87;;;3.33;;
20870;SDS011;10595;51.218;3.452;2022-10-04T22:37:01;6.13;;;2.90;;
20870;SDS011;10595;51.218;3.452;2022-10-04T22:39:27;4.97;;;3.00;;
20870;SDS011;10595;51.218;3.452;2022-10-04T22:41:57;3.60;;;3.10;;
20870;SDS011;10595;51.218;3.452;2022-10-04T22:44:26;5.00;;;3.10;;
20870;SDS011;10595;51.218;3.452;2022-10-04T22:46:57;5.97;;;3.20;;
20870;SDS011;10595;51.218;3.452;2022-10-04T22:49:24;6.10;;;3.37;;
20870;SDS011;10595;51.218;3.452;2022-10-04T22:51:52;4.00;;;3.60;;
20870;SDS011;10595;51.218;3.452;2022-10-04T22:54:19;5.47;;;3.07;;
20870;SDS011;10595;51.218;3.452;2022-10-04T22:56:46;5.90;;;3.40;;
20870;SDS011;10595;51.218;3.452;2022-10-04T22:59:13;6.77;;;3.50;;
20870;SDS011;10595;51.218;3.452;2022-10-04T23:01:39;9.00;;;3.37;;
20870;SDS011;10595;51.218;3.452;2022-10-04T23:04:14;6.00;;;3.17;;
20870;SDS011;10595;51.218;3.452;2022-10-04T23:06:41;7.27;;;3.80;;
20870;SDS011;10595;51.218;3.452;2022-10-04T23:09:07;5.77;;;3.60;;
20870;SDS011;10595;51.218;3.452;2022-10-04T23:11:33;5.73;;;4.43;;
20870;SDS011;10595;51.218;3.452;2022-10-04T23:13:59;6.40;;;3.97;;
20870;SDS011;10595;51.218;3.452;2022-10-04T23:16:25;4.67;;;4.07;;
20870;SDS011;10595;51.218;3.452;2022-10-04T23:18:57;7.03;;;4.30;;
20870;SDS011;10595;51.218;3.452;2022-10-04T23:21:24;8.97;;;4.40;;
20870;SDS011;10595;51.218;3.452;2022-10-04T23:23:51;7.23;;;4.40;;
20870;SDS011;10595;51.218;3.452;2022-10-04T23:26:21;8.63;;;4.17;;
20870;SDS011;10595;51.218;3.452;2022-10-04T23:28:48;7.13;;;4.57;;
20870;SDS011;10595;51.218;3.452;2022-10-04T23:31:19;8.20;;;5.03;;
20870;SDS011;10595;51.218;3.452;2022-10-04T23:33:47;9.53;;;4.60;;
20870;SDS011;10595;51.218;3.452;2022-10-04T23:36:13;5.90;;;4.90;;
20870;SDS011;10595;51.218;3.452;2022-10-04T23:38:45;8.87;;;5.23;;
20870;SDS011;10595;51.218;3.452;2022-10-04T23:41:11;9.13;;;5.10;;
20870;SDS011;10595;51.218;3.452;2022-10-04T23:43:37;8.83;;;5.40;;
20870;SDS011;10595;51.218;3.452;2022-10-04T23:46:04;7.50;;;4.70;;
20870;SDS011;10595;51.218;3.452;2022-10-04T23:48:35;8.83;;;5.30;;
20870;SDS011;10595;51.218;3.452;2022-10-04T23:51:01;9.40;;;5.43;;
20870;SDS011;10595;51.218;3.452;2022-10-04T23:53:29;8.13;;;5.07;;
20870;SDS011;10595;51.218;3.452;2022-10-04T23:55:56;9.47;;;5.40;;
20870;SDS011;10595;51.218;3.452;2022-10-04T23:58:25;11.53;;;5.20;;
